createdAt,value
2023-06-17T00:00:23.642Z,35.86
2023-06-17T00:01:23.625Z,35.88
2023-06-17T00:02:23.648Z,35.87
2023-06-17T00:03:23.635Z,35.87
2023-06-17T00:04:23.561Z,35.87
2023-06-17T00:05:23.552Z,35.88
2023-06-17T00:06:23.544Z,35.90
2023-06-17T00:07:23.574Z,35.87
2023-06-17T00:08:23.557Z,35.88
2023-06-17T00:09:23.520Z,35.86
2023-06-17T00:10:23.644Z,35.86
2023-06-17T00:11:23.530Z,35.86
2023-06-17T00:12:23.501Z,35.87
2023-06-17T00:13:23.531Z,35.87
2023-06-17T00:14:23.518Z,35.86
2023-06-17T00:15:23.519Z,35.87
2023-06-17T00:16:23.494Z,35.86
2023-06-17T00:17:23.662Z,35.84
2023-06-17T00:18:23.532Z,35.85
2023-06-17T00:19:23.498Z,35.87
2023-06-17T00:20:23.705Z,35.86
2023-06-17T00:21:23.470Z,35.87
2023-06-17T00:22:23.464Z,35.86
2023-06-17T00:23:23.486Z,35.86
2023-06-17T00:24:23.517Z,35.85
2023-06-17T00:25:23.487Z,35.86
2023-06-17T00:26:23.460Z,35.85
2023-06-17T00:27:23.479Z,35.84
2023-06-17T00:28:23.471Z,35.85
2023-06-17T00:29:23.477Z,35.86
2023-06-17T00:30:23.634Z,35.87
2023-06-17T00:31:23.488Z,35.84
2023-06-17T00:32:23.508Z,35.84
2023-06-17T00:33:23.440Z,35.86
2023-06-17T00:34:23.438Z,35.85
2023-06-17T00:35:23.470Z,35.87
2023-06-17T00:36:23.419Z,35.83
2023-06-17T00:37:23.427Z,35.82
2023-06-17T00:38:23.405Z,35.87
2023-06-17T00:39:23.412Z,35.87
2023-06-17T00:40:23.587Z,35.84
2023-06-17T00:41:23.399Z,35.84
2023-06-17T00:42:23.392Z,35.85
2023-06-17T00:43:23.393Z,35.83
2023-06-17T00:44:23.444Z,35.82
2023-06-17T00:45:23.419Z,35.84
2023-06-17T00:46:23.490Z,35.83
2023-06-17T00:47:23.416Z,35.84
2023-06-17T00:48:23.404Z,35.83
2023-06-17T00:49:23.412Z,35.82
2023-06-17T00:50:23.616Z,35.81
2023-06-17T00:51:23.415Z,35.81
2023-06-17T00:52:40.470Z,35.81
2023-06-17T00:53:24.888Z,35.83
2023-06-17T00:54:23.394Z,35.82
2023-06-17T00:55:23.389Z,35.83
2023-06-17T00:56:23.386Z,35.80
2023-06-17T00:57:23.385Z,35.80
2023-06-17T00:58:23.389Z,35.79
2023-06-17T00:59:23.364Z,35.79
2023-06-17T01:00:23.658Z,35.79
2023-06-17T01:01:23.357Z,35.82
2023-06-17T01:02:23.467Z,35.79
2023-06-17T01:03:23.401Z,35.79
2023-06-17T01:04:23.340Z,35.80
2023-06-17T01:05:23.326Z,35.79
2023-06-17T01:06:23.324Z,35.79
2023-06-17T01:07:23.313Z,35.77
2023-06-17T01:08:23.309Z,35.77
2023-06-17T01:09:23.305Z,35.78
2023-06-17T01:10:23.487Z,35.78
2023-06-17T01:11:23.295Z,35.79
2023-06-17T01:12:23.282Z,35.78
2023-06-17T01:13:23.288Z,35.76
2023-06-17T01:14:23.273Z,35.77
2023-06-17T01:15:23.283Z,35.76
2023-06-17T01:16:23.307Z,35.76
2023-06-17T01:17:23.330Z,35.75
2023-06-17T01:18:23.273Z,35.75
2023-06-17T01:19:23.236Z,35.77
2023-06-17T01:20:23.454Z,35.73
2023-06-17T01:21:23.229Z,35.77
2023-06-17T01:22:23.220Z,35.74
2023-06-17T01:23:23.211Z,35.73
2023-06-17T01:24:23.238Z,35.72
2023-06-17T01:25:23.199Z,35.74
2023-06-17T01:26:23.210Z,35.73
2023-06-17T01:27:23.178Z,35.73
2023-06-17T01:28:23.174Z,35.72
2023-06-17T01:29:23.173Z,35.71
2023-06-17T01:30:23.299Z,35.72
2023-06-17T01:31:23.156Z,35.74
2023-06-17T01:32:23.191Z,35.72
2023-06-17T01:33:23.144Z,35.74
2023-06-17T01:34:23.139Z,35.72
2023-06-17T01:35:23.135Z,35.73
2023-06-17T01:36:23.137Z,35.71
2023-06-17T01:37:23.113Z,35.70
2023-06-17T01:38:23.164Z,35.71
2023-06-17T01:39:23.126Z,35.69
2023-06-17T01:40:23.335Z,35.71
2023-06-17T01:41:23.084Z,35.72
2023-06-17T01:42:23.101Z,35.70
2023-06-17T01:43:23.099Z,35.68
2023-06-17T01:44:23.094Z,35.70
2023-06-17T01:45:23.065Z,35.71
2023-06-17T01:46:23.067Z,35.73
2023-06-17T01:47:23.146Z,35.71
2023-06-17T01:48:23.065Z,35.70
2023-06-17T01:49:23.032Z,35.68
2023-06-17T01:50:23.354Z,35.69
2023-06-17T01:51:23.029Z,35.69
2023-06-17T01:52:23.030Z,35.68
2023-06-17T01:53:23.012Z,35.67
2023-06-17T01:54:23.006Z,35.67
2023-06-17T01:55:22.988Z,35.68
2023-06-17T01:56:22.994Z,35.67
2023-06-17T01:57:22.978Z,35.66
2023-06-17T01:58:22.979Z,35.68
2023-06-17T01:59:22.960Z,35.67
2023-06-17T02:00:23.354Z,35.66
2023-06-17T02:01:22.962Z,35.67
2023-06-17T02:02:22.992Z,35.66
2023-06-17T02:03:23.129Z,35.66
2023-06-17T02:04:22.942Z,35.63
2023-06-17T02:05:22.937Z,35.64
2023-06-17T02:06:22.949Z,35.67
2023-06-17T02:07:22.944Z,35.66
2023-06-17T02:08:22.983Z,35.64
2023-06-17T02:09:22.990Z,35.64
2023-06-17T02:10:23.151Z,35.64
2023-06-17T02:11:22.981Z,35.63
2023-06-17T02:12:22.960Z,35.63
2023-06-17T02:13:22.967Z,35.63
2023-06-17T02:14:22.966Z,35.65
2023-06-17T02:15:22.975Z,35.64
2023-06-17T02:16:23.010Z,35.66
2023-06-17T02:17:22.983Z,35.62
2023-06-17T02:18:22.999Z,35.64
2023-06-17T02:19:23.009Z,35.67
2023-06-17T02:20:23.179Z,35.63
2023-06-17T02:21:23.014Z,35.64
2023-06-17T02:22:23.003Z,35.66
2023-06-17T02:23:23.019Z,35.63
2023-06-17T02:24:23.126Z,35.64
2023-06-17T02:25:23.004Z,35.64
2023-06-17T02:26:23.004Z,35.64
2023-06-17T02:27:23.021Z,35.63
2023-06-17T02:28:22.996Z,35.63
2023-06-17T02:29:23.005Z,35.63
2023-06-17T02:30:23.244Z,35.62
2023-06-17T02:31:23.033Z,35.64
2023-06-17T02:32:22.991Z,35.61
2023-06-17T02:33:22.995Z,35.62
2023-06-17T02:34:23.014Z,35.65
2023-06-17T02:35:23.015Z,35.63
2023-06-17T02:36:23.030Z,35.65
2023-06-17T02:37:23.029Z,35.60
2023-06-17T02:38:23.036Z,35.62
2023-06-17T02:39:23.042Z,35.62
2023-06-17T02:40:23.217Z,35.62
2023-06-17T02:41:23.066Z,35.61
2023-06-17T02:42:23.068Z,35.62
2023-06-17T02:43:23.091Z,35.62
2023-06-17T02:44:23.072Z,35.63
2023-06-17T02:45:23.098Z,35.61
2023-06-17T02:46:23.112Z,35.60
2023-06-17T02:47:23.097Z,35.59
2023-06-17T02:48:23.108Z,35.62
2023-06-17T02:49:23.096Z,35.63
2023-06-17T02:50:23.286Z,35.61
2023-06-17T02:51:23.115Z,35.61
2023-06-17T02:52:23.128Z,35.61
2023-06-17T02:53:23.119Z,35.64
2023-06-17T02:54:23.119Z,35.62
2023-06-17T02:55:23.124Z,35.63
2023-06-17T02:56:23.134Z,35.63
2023-06-17T02:57:23.148Z,35.58
2023-06-17T02:58:23.128Z,35.60
2023-06-17T02:59:23.178Z,35.62
2023-06-17T03:00:23.551Z,35.63
2023-06-17T03:01:23.190Z,35.61
2023-06-17T03:02:23.221Z,35.63
2023-06-17T03:03:23.210Z,35.60
2023-06-17T03:04:23.201Z,35.63
2023-06-17T03:05:23.223Z,35.62
2023-06-17T03:06:23.172Z,35.61
2023-06-17T03:07:23.179Z,35.59
2023-06-17T03:08:23.184Z,35.59
2023-06-17T03:09:23.191Z,35.57
2023-06-17T03:10:23.501Z,35.59
2023-06-17T03:11:23.205Z,35.60
2023-06-17T03:12:23.206Z,35.59
2023-06-17T03:13:23.211Z,35.58
2023-06-17T03:14:23.220Z,35.57
2023-06-17T03:15:23.220Z,35.57
2023-06-17T03:16:23.282Z,35.57
2023-06-17T03:17:23.248Z,35.59
2023-06-17T03:18:23.235Z,35.58
2023-06-17T03:19:23.257Z,35.59
2023-06-17T03:20:23.510Z,35.56
2023-06-17T03:21:23.261Z,35.61
2023-06-17T03:22:23.280Z,35.58
2023-06-17T03:23:23.287Z,35.56
2023-06-17T03:24:23.313Z,35.58
2023-06-17T03:25:23.283Z,35.58
2023-06-17T03:26:23.291Z,35.58
2023-06-17T03:27:23.308Z,35.55
2023-06-17T03:28:23.324Z,35.55
2023-06-17T03:29:23.327Z,35.54
2023-06-17T03:30:23.403Z,35.54
2023-06-17T03:31:23.347Z,35.57
2023-06-17T03:32:23.357Z,35.57
2023-06-17T03:33:23.337Z,35.56
2023-06-17T03:34:23.360Z,35.56
2023-06-17T03:35:23.332Z,35.56
2023-06-17T03:36:23.337Z,35.56
2023-06-17T03:37:23.339Z,35.56
2023-06-17T03:38:23.357Z,35.53
2023-06-17T03:39:23.356Z,35.56
2023-06-17T03:40:23.594Z,35.56
2023-06-17T03:41:23.375Z,35.53
2023-06-17T03:42:23.381Z,35.54
2023-06-17T03:43:23.419Z,35.54
2023-06-17T03:44:23.417Z,35.51
2023-06-17T03:45:23.425Z,35.51
2023-06-17T03:46:23.436Z,35.53
2023-06-17T03:47:23.482Z,35.52
2023-06-17T03:48:23.450Z,35.51
2023-06-17T03:49:23.449Z,35.51
2023-06-17T03:50:23.589Z,35.50
2023-06-17T03:51:23.459Z,35.52
2023-06-17T03:52:23.471Z,35.49
2023-06-17T03:53:23.475Z,35.49
2023-06-17T03:54:23.465Z,35.51
2023-06-17T03:55:23.615Z,35.50
2023-06-17T03:56:23.474Z,35.45
2023-06-17T03:57:23.485Z,35.48
2023-06-17T03:58:23.502Z,35.46
2023-06-17T03:59:23.506Z,35.50
2023-06-17T04:00:23.791Z,35.49
2023-06-17T04:01:23.481Z,35.47
2023-06-17T04:02:23.613Z,35.49
2023-06-17T04:03:23.555Z,35.48
2023-06-17T04:04:23.540Z,35.48
2023-06-17T04:05:23.488Z,35.47
2023-06-17T04:06:23.494Z,35.48
2023-06-17T04:07:23.499Z,35.46
2023-06-17T04:08:23.559Z,35.48
2023-06-17T04:09:23.519Z,35.45
2023-06-17T04:10:23.692Z,35.46
2023-06-17T04:11:23.528Z,35.44
2023-06-17T04:12:23.549Z,35.44
2023-06-17T04:13:23.548Z,35.44
2023-06-17T04:14:23.549Z,35.45
2023-06-17T04:15:23.519Z,35.43
2023-06-17T04:16:23.525Z,35.42
2023-06-17T04:17:23.526Z,35.44
2023-06-17T04:18:23.558Z,35.45
2023-06-17T04:19:23.516Z,35.42
2023-06-17T04:20:23.571Z,35.38
2023-06-17T04:21:23.527Z,35.39
2023-06-17T04:22:23.536Z,35.38
2023-06-17T04:23:23.551Z,35.35
2023-06-17T04:24:23.557Z,35.35
2023-06-17T04:25:23.525Z,35.31
2023-06-17T04:26:23.503Z,35.32
2023-06-17T04:27:23.512Z,35.28
2023-06-17T04:28:23.517Z,35.27
2023-06-17T04:29:23.520Z,35.21
2023-06-17T04:30:23.590Z,35.19
2023-06-17T04:31:23.481Z,35.17
2023-06-17T04:32:23.479Z,35.17
2023-06-17T04:33:23.477Z,35.19
2023-06-17T04:34:23.531Z,35.16
2023-06-17T04:35:23.477Z,35.13
2023-06-17T04:36:23.479Z,35.09
2023-06-17T04:37:23.521Z,35.07
2023-06-17T04:38:23.508Z,35.05
2023-06-17T04:39:23.532Z,35.01
2023-06-17T04:40:23.744Z,35.00
2023-06-17T04:41:23.631Z,34.99
2023-06-17T04:42:23.692Z,34.95
2023-06-17T04:43:23.776Z,34.94
2023-06-17T04:44:23.815Z,34.93
2023-06-17T04:45:23.859Z,34.86
2023-06-17T04:46:23.962Z,34.85
2023-06-17T04:47:24.000Z,34.82
2023-06-17T04:48:24.051Z,34.79
2023-06-17T04:49:24.106Z,34.74
2023-06-17T04:50:24.205Z,34.72
2023-06-17T04:51:24.242Z,34.67
2023-06-17T04:52:24.278Z,34.67
2023-06-17T04:53:24.367Z,34.64
2023-06-17T04:54:24.419Z,34.60
2023-06-17T04:55:24.456Z,34.56
2023-06-17T04:56:24.520Z,34.44
2023-06-17T04:57:24.572Z,34.45
2023-06-17T04:58:24.651Z,34.40
2023-06-17T04:59:24.676Z,34.37
2023-06-17T05:00:24.954Z,34.48
2023-06-17T05:01:24.790Z,34.46
2023-06-17T05:02:24.816Z,34.49
2023-06-17T05:03:24.925Z,34.57
2023-06-17T05:04:24.921Z,34.55
2023-06-17T05:05:24.965Z,34.48
2023-06-17T05:06:25.019Z,34.44
2023-06-17T05:07:25.057Z,34.21
2023-06-17T05:08:25.093Z,34.16
2023-06-17T05:09:25.134Z,34.04
2023-06-17T05:10:25.165Z,34.10
2023-06-17T05:11:25.190Z,34.15
2023-06-17T05:12:25.209Z,34.20
2023-06-17T05:13:25.269Z,34.17
2023-06-17T05:14:25.285Z,34.22
2023-06-17T05:15:25.330Z,34.27
2023-06-17T05:16:25.427Z,34.28
2023-06-17T05:17:25.456Z,34.17
2023-06-17T05:18:25.447Z,34.23
2023-06-17T05:19:25.503Z,34.22
2023-06-17T05:20:25.565Z,34.18
2023-06-17T05:21:25.553Z,34.20
2023-06-17T05:22:25.580Z,34.35
2023-06-17T05:23:25.626Z,34.23
2023-06-17T05:24:25.759Z,34.30
2023-06-17T05:25:25.709Z,34.37
2023-06-17T05:26:25.772Z,34.54
2023-06-17T05:27:25.812Z,34.51
2023-06-17T05:28:25.840Z,34.45
2023-06-17T05:29:25.898Z,34.53
2023-06-17T05:30:25.980Z,34.51
2023-06-17T05:31:25.978Z,34.52
2023-06-17T05:32:26.110Z,34.53
2023-06-17T05:33:26.049Z,34.61
2023-06-17T05:34:26.160Z,34.54
2023-06-17T05:35:26.123Z,34.61
2023-06-17T05:36:26.753Z,34.67
2023-06-17T05:37:26.215Z,34.68
2023-06-17T05:38:26.262Z,34.68
2023-06-17T05:39:26.295Z,34.75
2023-06-17T05:40:26.371Z,34.75
2023-06-17T05:41:26.391Z,34.82
2023-06-17T05:42:26.429Z,34.74
2023-06-17T05:43:26.484Z,34.60
2023-06-17T05:44:26.515Z,34.60
2023-06-17T05:45:26.593Z,34.58
2023-06-17T05:46:26.702Z,34.45
2023-06-17T05:47:26.693Z,34.27
2023-06-17T05:48:26.893Z,34.19
2023-06-17T05:49:26.712Z,34.25
2023-06-17T05:50:26.760Z,34.26
2023-06-17T05:51:26.767Z,34.32
2023-06-17T05:52:26.806Z,34.37
2023-06-17T05:53:26.859Z,34.46
2023-06-17T05:54:26.888Z,34.43
2023-06-17T05:55:26.903Z,34.31
2023-06-17T05:56:26.933Z,34.14
2023-06-17T05:57:26.948Z,34.04
2023-06-17T05:58:26.986Z,33.96
2023-06-17T05:59:26.998Z,34.02
2023-06-17T06:00:27.069Z,34.08
2023-06-17T06:01:27.129Z,34.11
2023-06-17T06:02:27.082Z,33.98
2023-06-17T06:03:27.100Z,33.95
2023-06-17T06:04:27.115Z,34.06
2023-06-17T06:05:27.109Z,34.06
2023-06-17T06:06:27.122Z,34.12
2023-06-17T06:07:27.133Z,34.03
2023-06-17T06:08:27.159Z,34.10
2023-06-17T06:09:27.164Z,34.14
2023-06-17T06:10:27.183Z,33.92
2023-06-17T06:11:27.181Z,33.84
2023-06-17T06:12:27.185Z,33.75
2023-06-17T06:13:27.247Z,33.77
2023-06-17T06:14:27.162Z,33.66
2023-06-17T06:15:27.177Z,33.53
2023-06-17T06:16:27.233Z,33.49
2023-06-17T06:17:27.237Z,33.53
2023-06-17T06:18:27.255Z,33.46
2023-06-17T06:19:27.301Z,33.46
2023-06-17T06:20:27.397Z,33.46
2023-06-17T06:21:27.419Z,33.48
2023-06-17T06:22:27.476Z,33.40
2023-06-17T06:23:27.501Z,33.42
2023-06-17T06:24:27.579Z,33.34
2023-06-17T06:25:27.567Z,33.20
2023-06-17T06:26:27.630Z,33.04
2023-06-17T06:27:27.687Z,32.99
2023-06-17T06:28:27.754Z,32.80
2023-06-17T06:29:27.781Z,32.70
2023-06-17T06:30:27.917Z,32.65
2023-06-17T06:31:27.881Z,32.47
2023-06-17T06:32:27.973Z,32.32
2023-06-17T06:33:27.984Z,32.24
2023-06-17T06:34:28.023Z,32.27
2023-06-17T06:35:28.068Z,32.24
2023-06-17T06:36:28.074Z,32.25
2023-06-17T06:37:28.114Z,32.30
2023-06-17T06:38:28.154Z,32.36
2023-06-17T06:39:28.188Z,32.40
2023-06-17T06:40:28.354Z,32.47
2023-06-17T06:41:28.241Z,32.47
2023-06-17T06:42:28.257Z,32.52
2023-06-17T06:43:28.307Z,32.66
2023-06-17T06:44:28.334Z,32.72
2023-06-17T06:45:28.455Z,32.78
2023-06-17T06:46:28.622Z,32.89
2023-06-17T06:47:28.471Z,32.92
2023-06-17T06:48:28.489Z,32.92
2023-06-17T06:49:28.494Z,33.02
2023-06-17T06:50:28.552Z,33.07
2023-06-17T06:51:28.570Z,33.14
2023-06-17T06:52:28.627Z,33.15
2023-06-17T06:53:28.673Z,33.16
2023-06-17T06:54:28.728Z,33.14
2023-06-17T06:55:28.736Z,33.11
2023-06-17T06:56:28.779Z,33.15
2023-06-17T06:57:28.813Z,33.14
2023-06-17T06:58:28.850Z,33.12
2023-06-17T06:59:28.892Z,33.15
2023-06-17T07:00:28.909Z,33.13
2023-06-17T07:01:28.983Z,33.15
2023-06-17T07:02:29.015Z,33.16
2023-06-17T07:03:29.010Z,33.16
2023-06-17T07:04:29.062Z,33.16
2023-06-17T07:05:29.064Z,33.17
2023-06-17T07:06:29.084Z,33.20
2023-06-17T07:07:29.115Z,33.18
2023-06-17T07:08:29.135Z,33.19
2023-06-17T07:09:29.152Z,33.20
2023-06-17T07:10:29.164Z,33.20
2023-06-17T07:11:29.189Z,33.22
2023-06-17T07:12:29.219Z,33.23
2023-06-17T07:13:29.230Z,33.22
2023-06-17T07:14:29.252Z,33.22
2023-06-17T07:15:29.264Z,33.20
2023-06-17T07:16:29.320Z,33.23
2023-06-17T07:17:29.339Z,33.24
2023-06-17T07:18:29.306Z,33.25
2023-06-17T07:19:29.358Z,33.25
2023-06-17T07:20:29.343Z,33.22
2023-06-17T07:21:29.379Z,33.21
2023-06-17T07:22:29.348Z,33.21
2023-06-17T07:23:29.389Z,33.23
2023-06-17T07:24:29.397Z,33.24
2023-06-17T07:25:29.363Z,33.23
2023-06-17T07:26:29.359Z,33.24
2023-06-17T07:27:29.378Z,33.23
2023-06-17T07:28:29.402Z,33.28
2023-06-17T07:29:29.378Z,33.26
2023-06-17T07:30:29.411Z,33.26
2023-06-17T07:31:29.396Z,33.28
2023-06-17T07:32:29.448Z,33.26
2023-06-17T07:33:29.425Z,33.28
2023-06-17T07:34:29.371Z,33.29
2023-06-17T07:35:29.370Z,33.28
2023-06-17T07:36:29.370Z,33.28
2023-06-17T07:37:29.365Z,33.31
2023-06-17T07:38:29.362Z,33.31
2023-06-17T07:39:29.346Z,33.32
2023-06-17T07:40:29.406Z,33.31
2023-06-17T07:41:29.349Z,33.34
2023-06-17T07:42:29.341Z,33.37
2023-06-17T07:43:29.359Z,33.35
2023-06-17T07:44:29.357Z,33.36
2023-06-17T07:45:29.377Z,33.39
2023-06-17T07:46:29.431Z,33.41
2023-06-17T07:47:29.446Z,33.49
2023-06-17T07:48:29.455Z,33.47
2023-06-17T07:49:29.484Z,33.50
2023-06-17T07:50:29.512Z,33.54
2023-06-17T07:51:29.536Z,33.55
2023-06-17T07:52:29.551Z,33.59
2023-06-17T07:53:29.596Z,33.58
2023-06-17T07:54:29.664Z,33.66
2023-06-17T07:55:29.674Z,33.69
2023-06-17T07:56:29.707Z,33.72
2023-06-17T07:57:29.731Z,33.76
2023-06-17T07:58:29.774Z,33.72
2023-06-17T07:59:29.778Z,33.80
2023-06-17T08:00:29.832Z,33.80
2023-06-17T08:01:29.917Z,33.84
2023-06-17T08:02:30.025Z,33.87
2023-06-17T08:03:30.043Z,33.89
2023-06-17T08:04:29.986Z,33.91
2023-06-17T08:05:30.012Z,33.89
2023-06-17T08:06:30.073Z,33.90
2023-06-17T08:07:30.121Z,33.93
2023-06-17T08:08:30.163Z,34.00
2023-06-17T08:09:30.177Z,34.04
2023-06-17T08:10:30.217Z,33.98
2023-06-17T08:11:30.235Z,33.97
2023-06-17T08:12:30.296Z,34.11
2023-06-17T08:13:30.335Z,34.14
2023-06-17T08:14:30.375Z,34.17
2023-06-17T08:15:30.379Z,34.15
2023-06-17T08:16:30.481Z,34.12
2023-06-17T08:17:30.482Z,34.25
2023-06-17T08:18:30.499Z,34.31
2023-06-17T08:19:30.528Z,34.39
2023-06-17T08:20:30.549Z,34.35
2023-06-17T08:21:30.590Z,34.33
2023-06-17T08:22:30.610Z,34.31
2023-06-17T08:23:30.663Z,34.41
2023-06-17T08:24:30.708Z,34.44
2023-06-17T08:25:30.698Z,34.43
2023-06-17T08:26:30.689Z,34.39
2023-06-17T08:27:32.232Z,34.39
2023-06-17T08:28:30.689Z,34.46
2023-06-17T08:29:30.676Z,34.65
2023-06-17T08:30:30.672Z,34.70
2023-06-17T08:31:30.675Z,34.74
2023-06-17T08:32:30.685Z,34.73
2023-06-17T08:33:30.669Z,34.75
2023-06-17T08:34:32.328Z,34.80
2023-06-17T08:35:30.752Z,34.88
2023-06-17T08:36:30.754Z,34.86
2023-06-17T08:37:30.744Z,34.83
2023-06-17T08:38:30.750Z,34.84
2023-06-17T08:39:30.726Z,34.86
2023-06-17T08:40:30.722Z,34.80
2023-06-17T08:41:30.718Z,34.81
2023-06-17T08:42:30.713Z,34.81
2023-06-17T08:43:30.721Z,34.76
2023-06-17T08:44:30.714Z,34.75
2023-06-17T08:45:30.766Z,34.85
2023-06-17T08:46:30.754Z,34.89
2023-06-17T08:47:30.710Z,34.88
2023-06-17T08:48:30.726Z,34.99
2023-06-17T08:49:30.707Z,35.08
2023-06-17T08:50:30.700Z,35.12
2023-06-17T08:51:30.706Z,35.10
2023-06-17T08:52:30.704Z,35.06
2023-06-17T08:53:30.687Z,35.06
2023-06-17T08:54:30.718Z,35.13
2023-06-17T08:55:30.690Z,35.15
2023-06-17T08:56:30.688Z,35.11
2023-06-17T08:57:30.692Z,35.10
2023-06-17T08:58:30.690Z,35.07
2023-06-17T08:59:30.690Z,35.12
2023-06-17T09:00:30.692Z,35.18
2023-06-17T09:01:30.736Z,35.22
2023-06-17T09:02:30.754Z,35.18
2023-06-17T09:03:30.694Z,35.21
2023-06-17T09:04:30.738Z,35.24
2023-06-17T09:05:30.708Z,35.25
2023-06-17T09:06:30.704Z,35.27
2023-06-17T09:07:30.698Z,35.34
2023-06-17T09:08:30.702Z,35.34
2023-06-17T09:09:30.714Z,35.39
2023-06-17T09:10:30.758Z,35.35
2023-06-17T09:11:30.743Z,35.40
2023-06-17T09:12:30.750Z,35.38
2023-06-17T09:13:30.853Z,35.41
2023-06-17T09:14:30.769Z,35.42
2023-06-17T09:15:30.790Z,35.43
2023-06-17T09:16:30.828Z,35.41
2023-06-17T09:17:30.849Z,35.42
2023-06-17T09:18:30.824Z,35.42
2023-06-17T09:19:30.839Z,35.40
2023-06-17T09:20:30.863Z,35.41
2023-06-17T09:21:30.884Z,35.42
2023-06-17T09:22:30.892Z,35.46
2023-06-17T09:23:30.932Z,35.42
2023-06-17T09:24:31.104Z,35.44
2023-06-17T09:25:30.964Z,35.47
2023-06-17T09:26:31.001Z,35.49
2023-06-17T09:27:30.998Z,35.50
2023-06-17T09:28:31.035Z,35.47
2023-06-17T09:29:31.082Z,35.49
2023-06-17T09:30:31.091Z,35.48
2023-06-17T09:31:31.133Z,35.44
2023-06-17T09:32:31.157Z,35.39
2023-06-17T09:33:31.138Z,35.45
2023-06-17T09:34:31.162Z,35.43
2023-06-17T09:35:31.173Z,35.41
2023-06-17T09:36:31.200Z,35.47
2023-06-17T09:37:31.193Z,35.49
2023-06-17T09:38:31.228Z,35.50
2023-06-17T09:39:31.235Z,35.50
2023-06-17T09:40:31.357Z,35.49
2023-06-17T09:41:31.282Z,35.52
2023-06-17T09:42:31.292Z,35.50
2023-06-17T09:43:31.339Z,35.54
2023-06-17T09:44:31.351Z,35.49
2023-06-17T09:45:31.371Z,35.57
2023-06-17T09:46:31.504Z,35.59
2023-06-17T09:47:31.453Z,35.58
2023-06-17T09:48:31.446Z,35.53
2023-06-17T09:49:31.465Z,35.60
2023-06-17T09:50:31.526Z,35.61
2023-06-17T09:51:31.510Z,35.57
2023-06-17T09:52:33.118Z,35.66
2023-06-17T09:53:31.964Z,35.64
2023-06-17T09:54:31.583Z,35.64
2023-06-17T09:55:31.621Z,35.62
2023-06-17T09:56:31.646Z,35.61
2023-06-17T09:57:31.662Z,35.59
2023-06-17T09:58:31.872Z,35.64
2023-06-17T09:59:31.749Z,35.71
2023-06-17T10:00:31.760Z,35.68
2023-06-17T10:01:31.992Z,35.71
2023-06-17T10:02:31.838Z,35.72
2023-06-17T10:03:31.905Z,35.78
2023-06-17T10:04:31.896Z,35.76
2023-06-17T10:05:31.912Z,35.78
2023-06-17T10:06:31.962Z,35.73
2023-06-17T10:07:31.968Z,35.75
2023-06-17T10:08:32.016Z,35.80
2023-06-17T10:09:32.039Z,35.75
2023-06-17T10:10:32.081Z,35.77
2023-06-17T10:11:32.122Z,35.81
2023-06-17T10:12:32.152Z,35.79
2023-06-17T10:13:32.192Z,35.80
2023-06-17T10:14:32.287Z,35.76
2023-06-17T10:15:32.275Z,35.78
2023-06-17T10:16:32.300Z,35.80
2023-06-17T10:17:32.348Z,35.81
2023-06-17T10:18:32.378Z,35.83
2023-06-17T10:19:32.427Z,35.92
2023-06-17T10:20:32.483Z,35.89
2023-06-17T10:21:32.508Z,35.93
2023-06-17T10:22:32.547Z,35.94
2023-06-17T10:23:32.603Z,35.90
2023-06-17T10:24:32.697Z,35.87
2023-06-17T10:25:32.683Z,35.89
2023-06-17T10:26:32.748Z,35.89
2023-06-17T10:27:32.834Z,35.93
2023-06-17T10:28:32.861Z,35.89
2023-06-17T10:29:32.854Z,35.85
2023-06-17T10:30:32.933Z,35.91
2023-06-17T10:31:32.943Z,35.93
2023-06-17T10:32:33.021Z,35.89
2023-06-17T10:33:33.046Z,35.90
2023-06-17T10:34:33.105Z,35.90
2023-06-17T10:35:33.110Z,35.89
2023-06-17T10:36:33.158Z,35.96
2023-06-17T10:37:33.214Z,35.88
2023-06-17T10:38:33.300Z,35.87
2023-06-17T10:39:33.297Z,35.87
2023-06-17T10:40:33.345Z,35.86
2023-06-17T10:41:33.376Z,35.87
2023-06-17T10:42:33.416Z,35.86
2023-06-17T10:43:33.470Z,35.88
2023-06-17T10:44:33.503Z,35.84
2023-06-17T10:45:33.665Z,35.83
2023-06-17T10:46:33.613Z,35.81
2023-06-17T10:47:33.690Z,35.76
2023-06-17T10:48:33.754Z,35.84
2023-06-17T10:49:33.732Z,35.81
2023-06-17T10:50:33.804Z,35.77
2023-06-17T10:51:41.402Z,35.75
2023-06-17T10:52:34.817Z,35.77
2023-06-17T10:53:33.823Z,35.76
2023-06-17T10:54:33.802Z,35.79
2023-06-17T10:55:33.789Z,35.85
2023-06-17T10:56:33.786Z,35.83
2023-06-17T10:57:33.920Z,35.82
2023-06-17T10:58:33.801Z,35.80
2023-06-17T10:59:33.761Z,35.85
2023-06-17T11:00:33.803Z,35.81
2023-06-17T11:01:33.746Z,35.76
2023-06-17T11:02:33.831Z,35.75
2023-06-17T11:03:33.916Z,35.76
2023-06-17T11:04:33.763Z,35.74
2023-06-17T11:05:33.747Z,35.81
2023-06-17T11:06:33.803Z,35.77
2023-06-17T11:07:34.897Z,35.78
2023-06-17T11:08:33.923Z,35.75
2023-06-17T11:09:33.915Z,35.73
2023-06-17T11:10:34.033Z,35.78
2023-06-17T11:11:34.012Z,35.82
2023-06-17T11:12:34.053Z,35.80
2023-06-17T11:13:34.177Z,35.80
2023-06-17T11:14:34.143Z,35.83
2023-06-17T11:15:34.189Z,35.76
2023-06-17T11:16:34.310Z,35.74
2023-06-17T11:17:34.326Z,35.71
2023-06-17T11:18:34.315Z,35.72
2023-06-17T11:19:34.365Z,35.72
2023-06-17T11:20:34.392Z,35.73
2023-06-17T11:21:34.436Z,35.69
2023-06-17T11:22:34.509Z,35.68
2023-06-17T11:23:34.547Z,35.61
2023-06-17T11:24:34.624Z,35.61
2023-06-17T11:25:44.233Z,35.63
2023-06-17T11:26:35.610Z,35.67
2023-06-17T11:27:34.600Z,35.68
2023-06-17T11:28:34.613Z,35.70
2023-06-17T11:29:34.586Z,35.66
2023-06-17T11:30:34.606Z,35.67
2023-06-17T11:31:34.578Z,35.69
2023-06-17T11:32:34.591Z,35.68
2023-06-17T11:33:36.883Z,35.63
2023-06-17T11:34:34.549Z,35.61
2023-06-17T11:35:34.583Z,35.59
2023-06-17T11:36:34.523Z,35.57
2023-06-17T11:37:34.522Z,35.59
2023-06-17T11:38:34.529Z,35.59
2023-06-17T11:39:36.214Z,35.60
2023-06-17T11:40:34.503Z,35.58
2023-06-17T11:41:34.525Z,35.57
2023-06-17T11:42:34.492Z,35.56
2023-06-17T11:43:34.468Z,35.57
2023-06-17T11:44:34.483Z,35.56
2023-06-17T11:45:35.372Z,35.56
2023-06-17T11:46:34.528Z,35.53
2023-06-17T11:47:34.498Z,35.55
2023-06-17T11:48:34.443Z,35.57
2023-06-17T11:49:34.444Z,35.51
2023-06-17T11:50:34.445Z,35.54
2023-06-17T11:51:34.410Z,35.57
2023-06-17T11:52:34.402Z,35.54
2023-06-17T11:53:34.399Z,35.57
2023-06-17T11:54:34.430Z,35.58
2023-06-17T11:55:34.381Z,35.60
2023-06-17T11:56:34.381Z,35.60
2023-06-17T11:57:34.379Z,35.54
2023-06-17T11:58:34.416Z,35.58
2023-06-17T11:59:34.461Z,35.55
2023-06-17T12:00:34.511Z,35.51
2023-06-17T12:01:34.549Z,35.52
2023-06-17T12:02:34.693Z,35.55
2023-06-17T12:03:34.717Z,35.59
2023-06-17T12:04:34.754Z,35.56
2023-06-17T12:05:34.736Z,35.57
2023-06-17T12:06:34.762Z,35.54
2023-06-17T12:07:34.803Z,35.52
2023-06-17T12:08:34.861Z,35.49
2023-06-17T12:09:34.902Z,35.47
2023-06-17T12:10:34.943Z,35.47
2023-06-17T12:11:34.976Z,35.46
2023-06-17T12:12:35.038Z,35.45
2023-06-17T12:13:35.064Z,35.48
2023-06-17T12:14:35.117Z,35.37
2023-06-17T12:15:37.235Z,35.35
2023-06-17T12:16:35.170Z,35.36
2023-06-17T12:17:35.253Z,35.38
2023-06-17T12:18:35.266Z,35.36
2023-06-17T12:19:35.325Z,35.35
2023-06-17T12:20:35.352Z,35.34
2023-06-17T12:21:35.423Z,35.32
2023-06-17T12:22:35.453Z,35.30
2023-06-17T12:23:35.516Z,35.26
2023-06-17T12:24:35.713Z,35.27
2023-06-17T12:25:35.609Z,35.28
2023-06-17T12:26:35.653Z,35.24
2023-06-17T12:27:35.704Z,35.18
2023-06-17T12:28:35.749Z,35.19
2023-06-17T12:29:35.800Z,35.23
2023-06-17T12:30:35.846Z,35.31
2023-06-17T12:31:35.917Z,35.27
2023-06-17T12:32:35.980Z,35.27
2023-06-17T12:33:35.999Z,35.25
2023-06-17T12:34:36.078Z,35.18
2023-06-17T12:35:36.100Z,35.20
2023-06-17T12:36:36.153Z,35.26
2023-06-17T12:37:36.234Z,35.24
2023-06-17T12:38:36.256Z,35.20
2023-06-17T12:39:36.330Z,35.21
2023-06-17T12:40:36.372Z,35.20
2023-06-17T12:41:36.417Z,35.19
2023-06-17T12:42:36.468Z,35.22
2023-06-17T12:43:36.505Z,35.26
2023-06-17T12:44:36.567Z,35.20
2023-06-17T12:45:36.628Z,35.14
2023-06-17T12:46:36.922Z,35.12
2023-06-17T12:47:36.758Z,35.13
2023-06-17T12:48:36.764Z,35.18
2023-06-17T12:49:36.813Z,35.11
2023-06-17T12:50:36.852Z,35.08
2023-06-17T12:51:36.913Z,35.09
2023-06-17T12:52:36.984Z,35.13